York, Pennsylvania
Current Conditions -  °F | °C
As of 12:24 PM on Saturday 20 Dec 2014 (Local Time) from KTHV Reporting Station
Broken Clouds Broken Clouds  
Wind Chill: 32°   Ceiling: 2800
Heat Index: 32°   Visibility: 10mi
Dew Point: 20°   Wind: 0mph
Humidity: 61%   Direction: NA
Pressure: 30.26"   Gusts: NA
Location:  39.96°N, 76.72°W
Report Text: KTHV 201724Z AUTO 00000KT 10SM BKN028 00/M07 A3026 RMK AO2 T00001067
Loading
Personal Weather Stations






























Interactive Weather Map New forecast layout! Learn more

10-Day Weather Forecast

Advertisements
Track Severe Weather on mobile